NXCC EDLW-EDLW

Flight info

Callsign NXCC
Flight time 0h 2m
Altitude 100
Route VRF CIRCUITS
Aircraft ZSL/L-VGD/A

Departure

Time 2026-04-30 19:47
Airport Dortmund Airport (EDLW)

Arrival

Time 2026-04-30 19:50
Airport Dortmund Airport (EDLW)
Time Latitude Longitude Altitude Speed Heading
2026-04-30 19:27 51.51329 7.60801 435 ft 0 kts 167°
2026-04-30 19:33 51.51362 7.60796 435 ft 12 kts 20°
2026-04-30 19:33 51.51414 7.60813 434 ft 9 kts 288°
2026-04-30 19:33 51.51379 7.60684 440 ft 15 kts 242°
2026-04-30 19:33 51.51318 7.60512 441 ft 20 kts 243°
2026-04-30 19:34 51.51247 7.60310 445 ft 21 kts 242°
2026-04-30 19:34 51.51198 7.60176 450 ft 8 kts 218°
2026-04-30 19:34 51.51166 7.60243 457 ft 13 kts 57°
2026-04-30 19:35 51.51216 7.60350 453 ft 12 kts 59°
2026-04-30 19:35 51.51248 7.60443 453 ft 10 kts 60°
2026-04-30 19:35 51.51284 7.60549 453 ft 11 kts 64°
2026-04-30 19:35 51.51309 7.60614 452 ft 2 kts
2026-04-30 19:36 51.51357 7.60647 441 ft 5 kts 41°
2026-04-30 19:36 51.51389 7.60712 434 ft 8 kts 65°
2026-04-30 19:36 51.51453 7.60901 431 ft 9 kts 65°
2026-04-30 19:37 51.51482 7.60989 432 ft 9 kts 50°
2026-04-30 19:37 51.51518 7.61057 431 ft 9 kts 19°
2026-04-30 19:37 51.51569 7.60988 426 ft 14 kts 258°
2026-04-30 19:37 51.51549 7.60845 421 ft 12 kts 256°
2026-04-30 19:38 51.51527 7.60717 421 ft 8 kts 260°
2026-04-30 19:38 51.51526 7.60684 416 ft 0 kts 278°
2026-04-30 19:43 51.51526 7.60683 416 ft 0 kts 278°
2026-04-30 19:43 51.51526 7.60682 416 ft 0 kts 278°
2026-04-30 19:45 51.51555 7.60621 417 ft 9 kts 328°
2026-04-30 19:45 51.51605 7.60617 421 ft 5 kts 32°
2026-04-30 19:45 51.51623 7.60642 421 ft 7 kts 42°
2026-04-30 19:45 51.51636 7.60669 422 ft 0 kts 58°
2026-04-30 19:46 51.51723 7.60925 454 ft 50 kts 64°
2026-04-30 19:47 51.51903 7.61397 721 ft 51 kts 64°
2026-04-30 19:47 51.52020 7.61728 865 ft 53 kts 65°
2026-04-30 19:47 51.52283 7.62499 1150 ft 65 kts 59°
2026-04-30 19:47 51.52700 7.62895 1358 ft 79 kts 19°
2026-04-30 19:48 51.53235 7.62515 1416 ft 95 kts 323°
2026-04-30 19:48 51.53567 7.61581 1385 ft 99 kts 285°
2026-04-30 19:48 51.53595 7.60561 1350 ft 86 kts 258°
2026-04-30 19:48 51.53523 7.59625 1371 ft 84 kts 255°
2026-04-30 19:49 51.53465 7.58736 1461 ft 72 kts 257°
2026-04-30 19:49 51.53443 7.56981 1463 ft 83 kts 256°
2026-04-30 19:49 51.53268 7.56152 1390 ft 74 kts 225°
2026-04-30 19:50 51.52954 7.55633 1365 ft 58 kts 194°
2026-04-30 19:50 51.52625 7.55585 1341 ft 46 kts 155°
2026-04-30 19:50 51.52299 7.55721 1307 ft 51 kts 150°
2026-04-30 19:50 51.51945 7.55916 1222 ft 55 kts 148°
2026-04-30 19:51 51.51613 7.56165 1116 ft 49 kts 137°
2026-04-30 19:51 51.51386 7.56578 1064 ft 51 kts 119°
2026-04-30 19:51 51.51210 7.57103 1007 ft 56 kts 113°
2026-04-30 19:51 51.51090 7.57672 912 ft 51 kts 102°
2026-04-30 19:52 51.51048 7.58209 819 ft 46 kts 88°
2026-04-30 19:52 51.51090 7.58742 721 ft 50 kts 82°
2026-04-30 19:52 51.51190 7.59277 664 ft 46 kts 75°
2026-04-30 19:52 51.51307 7.59714 585 ft 44 kts 68°
2026-04-30 19:53 51.51466 7.60171 517 ft 50 kts 64°
2026-04-30 19:53 51.51630 7.60640 437 ft 45 kts 65°
2026-04-30 19:53 51.51761 7.61038 422 ft 43 kts 67°
2026-04-30 19:53 51.51980 7.61606 579 ft 68 kts 60°
2026-04-30 19:54 51.52279 7.62275 734 ft 78 kts 57°
2026-04-30 19:54 51.52599 7.62935 869 ft 72 kts 57°
2026-04-30 19:54 51.52881 7.63570 959 ft 69 kts 64°
2026-04-30 19:54 51.53169 7.64158 1118 ft 66 kts 44°
2026-04-30 19:55 51.53649 7.64285 1263 ft 81 kts 355°
2026-04-30 19:55 51.54188 7.63898 1389 ft 89 kts 335°
2026-04-30 19:55 51.54605 7.63097 1378 ft 100 kts 292°
2026-04-30 19:55 51.54664 7.62023 1299 ft 95 kts 253°
2026-04-30 19:56 51.54472 7.61079 1325 ft 83 kts 240°
2026-04-30 19:56 51.54238 7.60204 1373 ft 88 kts 235°
2026-04-30 19:56 51.53955 7.59311 1428 ft 91 kts 231°
2026-04-30 19:56 51.53656 7.58389 1444 ft 94 kts 233°
2026-04-30 19:57 51.53371 7.57471 1484 ft 89 kts 233°
2026-04-30 19:57 51.53088 7.56595 1501 ft 89 kts 231°
2026-04-30 19:57 51.52934 7.55577 1464 ft 100 kts 268°
2026-04-30 19:57 51.53187 7.54541 1436 ft 99 kts 313°
2026-04-30 19:58 51.53721 7.53965 1424 ft 89 kts 356°
2026-04-30 19:58 51.54267 7.54001 1447 ft 75 kts 37°
2026-04-30 19:58 51.54626 7.54528 1483 ft 67 kts 72°
2026-04-30 19:58 51.54676 7.55228 1477 ft 62 kts 106°
2026-04-30 19:59 51.54435 7.55805 1408 ft 67 kts 137°
2026-04-30 19:59 51.53983 7.56067 1291 ft 72 kts 160°
2026-04-30 19:59 51.53041 7.56295 1289 ft 66 kts 161°
2026-04-30 20:00 51.52581 7.56387 1284 ft 68 kts 162°
2026-04-30 20:00 51.52132 7.56518 1228 ft 59 kts 159°
2026-04-30 20:00 51.51758 7.56678 1182 ft 56 kts 156°
2026-04-30 20:00 51.51431 7.56939 1121 ft 50 kts 140°
2026-04-30 20:01 51.51077 7.57824 949 ft 46 kts 104°
2026-04-30 20:01 51.51002 7.58307 833 ft 44 kts 95°
2026-04-30 20:01 51.51035 7.58730 723 ft 34 kts 81°
2026-04-30 20:02 51.51199 7.59453 590 ft 39 kts 67°
2026-04-30 20:02 51.51351 7.59835 570 ft 42 kts 63°
2026-04-30 20:03 51.51586 7.60512 421 ft 28 kts 68°
2026-04-30 20:03 51.51658 7.60731 417 ft 13 kts 55°